Main page
METAR-TAF:

METAR-TAF

Airports :

Mosjøen Airport. Kjærstad

Mosjøen, Norway

latitude: 65-48N, longitude: 013-08E, elevation: 70 m

Current weather observation

The report was made 19 minutes ago, at 22:20 UTC
Calm wind
Temperature 19°C
Humidity 68%
Pressure 1011 hPa
Visibility 10 km or more

METAR: ENMS 172220Z AUTO 00000KT 9999 OVC098/// 19/13 Q1011 RMK WIND 412FT 00000KT

Time: 00:39 (22:39 UTC)

Forecast

The report was made 8 hours and 39 minutes ago, at 14:00 UTC
Forecast valid from 17 at 15 UTC to 17 at 21 UTC
Wind 8 kt from the East/Southeast
Visibility 10 km or more
Few clouds at a height of 5000 ft
Scattered clouds at a height of 8000 ft

TAF: ENMS 171400Z 1715/1721 12008KT 9999 FEW050 SCT080

Weather observations and forecasts of more than 4000 airports (METAR and TAF reports).

The available stations are represented by yellow and red dots on the map.

Hover mouse over dot to see the name of the station.

Then click to see weather observations and forecasts.

To change the map : click on the green buttons with a black cross to zoom in, on the green button with a dash to zoom out, or on the green arrows for adjacent maps.


METAR-TAF: